createdAt,value
2023-02-25T00:00:08.141Z,8.51
2023-02-25T00:02:34.688Z,8.13
2023-02-25T00:05:01.741Z,8.23
2023-02-25T00:07:35.695Z,8.29
2023-02-25T00:10:02.371Z,8.33
2023-02-25T00:12:30.816Z,8.33
2023-02-25T00:14:57.187Z,8.33
2023-02-25T00:17:26.776Z,8.23
2023-02-25T00:19:55.654Z,8.22
2023-02-25T00:22:22.145Z,8.27
2023-02-25T00:24:55.751Z,8.25
2023-02-25T00:27:22.319Z,8.27
2023-02-25T00:29:49.761Z,8.36
2023-02-25T00:32:16.356Z,8.39
2023-02-25T00:34:44.361Z,8.37
2023-02-25T00:37:10.900Z,8.35
2023-02-25T00:39:37.714Z,8.39
2023-02-25T00:42:04.519Z,8.45
2023-02-25T00:44:33.814Z,8.52
2023-02-25T00:47:01.402Z,8.54
2023-02-25T00:49:32.568Z,8.61
2023-02-25T00:52:02.049Z,8.45
2023-02-25T00:54:29.947Z,8.52
2023-02-25T00:56:56.377Z,8.52
2023-02-25T00:59:31.923Z,8.52
2023-02-25T01:01:58.529Z,8.52
2023-02-25T01:04:25.098Z,8.51
2023-02-25T01:06:52.291Z,8.52
2023-02-25T01:09:19.175Z,8.53
2023-02-25T01:11:48.134Z,8.43
2023-02-25T01:14:14.926Z,8.39
2023-02-25T01:16:41.633Z,8.38
2023-02-25T01:19:08.713Z,8.34
2023-02-25T01:21:35.165Z,8.36
2023-02-25T01:24:01.644Z,8.41
2023-02-25T01:26:28.336Z,8.56
2023-02-25T01:28:56.478Z,8.61
2023-02-25T01:31:26.073Z,8.63
2023-02-25T01:33:54.909Z,8.68
2023-02-25T01:36:21.833Z,8.71
2023-02-25T01:38:51.202Z,8.72
2023-02-25T01:41:19.251Z,8.75
2023-02-25T01:43:45.920Z,8.77
2023-02-25T01:46:12.810Z,8.81
2023-02-25T01:48:39.195Z,8.73
2023-02-25T01:51:05.687Z,8.68
2023-02-25T01:53:32.258Z,8.65
2023-02-25T01:55:58.737Z,8.73
2023-02-25T01:58:25.430Z,8.69
2023-02-25T02:00:51.967Z,8.68
2023-02-25T02:03:19.951Z,8.70
2023-02-25T02:05:47.784Z,8.72
2023-02-25T02:08:14.305Z,8.73
2023-02-25T02:10:41.734Z,8.71
2023-02-25T02:13:09.172Z,8.65
2023-02-25T02:15:35.543Z,8.60
2023-02-25T02:18:02.061Z,8.63
2023-02-25T02:20:28.698Z,8.53
2023-02-25T02:22:55.480Z,8.57
2023-02-25T02:25:29.218Z,8.64
2023-02-25T02:27:58.895Z,8.60
2023-02-25T02:30:25.578Z,8.54
2023-02-25T02:32:52.414Z,8.58
2023-02-25T02:35:18.891Z,8.66
2023-02-25T02:37:45.596Z,8.63
2023-02-25T02:40:12.409Z,8.70
2023-02-25T02:42:41.224Z,8.54
2023-02-25T02:45:07.760Z,8.54
2023-02-25T02:47:34.378Z,8.37
2023-02-25T02:50:01.067Z,8.32
2023-02-25T02:52:27.708Z,8.27
2023-02-25T02:54:54.489Z,8.31
2023-02-25T02:57:23.707Z,8.32
2023-02-25T02:59:50.666Z,8.33
2023-02-25T03:02:17.038Z,8.42
2023-02-25T03:04:43.453Z,8.45
2023-02-25T03:07:10.846Z,8.47
2023-02-25T03:09:38.863Z,8.50
2023-02-25T03:12:05.326Z,8.53
2023-02-25T03:14:32.366Z,8.53
2023-02-25T03:16:58.867Z,8.55
2023-02-25T03:19:25.743Z,8.57
2023-02-25T03:21:52.537Z,8.51
2023-02-25T03:24:19.038Z,8.52
2023-02-25T03:26:45.465Z,8.52
2023-02-25T03:29:13.333Z,8.51
2023-02-25T03:31:39.947Z,8.52
2023-02-25T03:34:08.583Z,8.52
2023-02-25T03:36:34.990Z,8.42
2023-02-25T03:39:02.888Z,8.45
2023-02-25T03:41:29.370Z,8.46
2023-02-25T03:43:56.131Z,8.45
2023-02-25T03:46:23.169Z,8.46
2023-02-25T03:48:49.866Z,8.50
2023-02-25T03:51:16.436Z,8.49
2023-02-25T03:53:42.932Z,8.43
2023-02-25T03:56:12.008Z,8.43
2023-02-25T03:58:38.709Z,8.42
2023-02-25T04:01:06.944Z,8.44
2023-02-25T04:03:33.644Z,8.40
2023-02-25T04:06:00.232Z,8.40
2023-02-25T04:08:27.028Z,8.37
2023-02-25T04:10:53.530Z,8.37
2023-02-25T04:13:20.115Z,8.38
2023-02-25T04:15:46.675Z,8.37
2023-02-25T04:18:13.535Z,8.34
2023-02-25T04:20:47.940Z,8.35
2023-02-25T04:23:14.387Z,8.36
2023-02-25T04:25:40.978Z,8.32
2023-02-25T04:28:09.131Z,8.27
2023-02-25T04:30:35.656Z,8.22
2023-02-25T04:33:03.238Z,8.17
2023-02-25T04:35:29.968Z,8.13
2023-02-25T04:37:56.459Z,8.10
2023-02-25T04:40:25.173Z,8.10
2023-02-25T04:42:51.743Z,8.09
2023-02-25T04:45:19.676Z,8.10
2023-02-25T04:47:46.306Z,8.09
2023-02-25T04:50:12.893Z,7.99
2023-02-25T04:52:39.397Z,7.95
2023-02-25T04:55:06.470Z,7.98
2023-02-25T04:57:32.853Z,7.98
2023-02-25T05:00:02.988Z,7.98
2023-02-25T05:02:29.829Z,7.95
2023-02-25T05:04:56.970Z,7.92
2023-02-25T05:07:27.366Z,7.90
2023-02-25T05:09:53.890Z,7.89
2023-02-25T05:12:21.793Z,7.86
2023-02-25T05:14:48.772Z,7.85
2023-02-25T05:17:17.406Z,7.87
2023-02-25T05:19:44.858Z,7.86
2023-02-25T05:22:11.299Z,7.85
2023-02-25T05:24:38.589Z,7.85
2023-02-25T05:27:05.792Z,7.81
2023-02-25T05:29:32.258Z,7.82
2023-02-25T05:31:59.229Z,7.83
2023-02-25T05:34:25.700Z,7.82
2023-02-25T05:36:52.518Z,7.83
2023-02-25T05:39:20.024Z,7.84
2023-02-25T05:41:46.491Z,7.86
2023-02-25T05:44:13.066Z,7.87
2023-02-25T05:46:39.841Z,7.87
2023-02-25T05:49:06.311Z,7.89
2023-02-25T05:51:35.281Z,7.85
2023-02-25T06:56:33.852Z,7.79
2023-02-25T06:59:01.101Z,7.77
2023-02-25T07:01:27.887Z,7.77
2023-02-25T07:09:33.725Z,7.82
2023-02-25T07:21:22.054Z,7.93
2023-02-25T07:45:58.890Z,8.24
2023-02-25T07:57:42.320Z,8.38
2023-02-25T08:05:09.057Z,8.44
2023-02-25T08:27:30.508Z,7.61
2023-02-25T11:34:47.274Z,11.02
2023-02-25T11:37:13.902Z,10.72
2023-02-25T11:39:40.327Z,10.85
2023-02-25T11:42:06.808Z,11.13
2023-02-25T11:44:33.232Z,11.13
2023-02-25T11:47:04.138Z,10.57
2023-02-25T11:49:30.525Z,10.63
2023-02-25T11:51:56.857Z,10.69
2023-02-25T11:54:23.471Z,10.55
2023-02-25T11:56:49.966Z,10.80
2023-02-25T11:59:17.242Z,10.83
2023-02-25T12:01:45.780Z,10.86
2023-02-25T12:04:12.480Z,10.90
2023-02-25T12:06:39.070Z,10.75
2023-02-25T12:09:05.573Z,10.81
2023-02-25T12:11:32.443Z,10.49
2023-02-25T12:14:01.288Z,10.24
2023-02-25T12:16:28.126Z,10.21
2023-02-25T12:18:54.477Z,10.19
2023-02-25T12:21:21.151Z,10.30
2023-02-25T12:23:47.745Z,10.26
2023-02-25T12:26:14.786Z,9.97
2023-02-25T12:28:41.174Z,10.20
2023-02-25T12:31:07.648Z,10.36
2023-02-25T12:33:34.123Z,10.51
2023-02-25T12:36:02.960Z,10.63
2023-02-25T12:38:29.645Z,10.58
2023-02-25T12:40:56.936Z,10.71
2023-02-25T12:43:23.514Z,10.78
2023-02-25T12:45:51.886Z,10.84
2023-02-25T12:48:18.370Z,10.81
2023-02-25T12:50:44.900Z,11.11
2023-02-25T12:53:13.133Z,11.42
2023-02-25T12:55:41.209Z,11.72
2023-02-25T12:58:07.767Z,12.06
2023-02-25T13:00:36.309Z,12.32
2023-02-25T13:03:03.093Z,12.44
2023-02-25T13:05:29.538Z,11.49
2023-02-25T13:07:55.926Z,10.73
2023-02-25T13:10:22.627Z,10.08
2023-02-25T13:12:51.278Z,9.68
2023-02-25T13:15:18.296Z,9.63
2023-02-25T13:17:44.770Z,9.47
2023-02-25T13:20:12.749Z,9.71
2023-02-25T13:22:39.247Z,9.79
2023-02-25T13:25:05.638Z,9.75
2023-02-25T13:27:31.990Z,9.92
2023-02-25T13:29:58.329Z,9.93
2023-02-25T13:32:25.115Z,9.90
2023-02-25T13:34:51.519Z,9.99
2023-02-25T13:37:17.932Z,9.79
2023-02-25T13:39:44.388Z,9.61
2023-02-25T13:42:10.744Z,9.27
2023-02-25T13:44:37.114Z,9.36
2023-02-25T13:47:03.464Z,9.50
2023-02-25T13:49:29.815Z,9.31
2023-02-25T13:51:56.645Z,9.22
2023-02-25T13:54:23.410Z,9.24
2023-02-25T13:56:49.913Z,8.72
2023-02-25T13:59:16.251Z,8.63
2023-02-25T14:01:43.910Z,8.57
2023-02-25T14:04:10.935Z,8.45
2023-02-25T14:06:38.349Z,8.36
2023-02-25T14:09:04.720Z,8.10
2023-02-25T14:11:31.366Z,7.92
2023-02-25T14:13:57.748Z,8.03
2023-02-25T14:16:24.088Z,7.87
2023-02-25T14:18:50.457Z,7.91
2023-02-25T14:21:16.995Z,7.71
2023-02-25T14:23:43.479Z,7.85
2023-02-25T14:26:10.743Z,7.90
2023-02-25T14:28:37.112Z,7.95
2023-02-25T14:31:04.774Z,8.07
2023-02-25T14:33:32.189Z,8.11
2023-02-25T14:35:58.560Z,8.32
2023-02-25T14:38:25.044Z,7.95
2023-02-25T14:40:51.424Z,7.17
2023-02-25T14:43:18.022Z,7.16
2023-02-25T14:45:44.436Z,7.34
2023-02-25T14:48:11.581Z,7.21
2023-02-25T20:06:39.418Z,3.56
2023-02-25T20:09:10.748Z,3.57
2023-02-25T20:11:44.693Z,3.49
2023-02-25T20:14:14.330Z,3.47
2023-02-25T20:16:49.697Z,3.53
2023-02-25T20:19:17.768Z,3.61
2023-02-25T20:21:45.113Z,3.58
2023-02-25T20:24:12.691Z,3.63
2023-02-25T20:26:45.545Z,3.34
2023-02-25T20:29:14.487Z,3.39
2023-02-25T20:31:41.861Z,3.37
2023-02-25T20:34:08.587Z,3.44
2023-02-25T20:36:38.256Z,3.44
2023-02-25T20:39:11.065Z,3.29
2023-02-25T20:41:38.837Z,3.02
2023-02-25T20:44:07.277Z,3.20
2023-02-25T20:46:34.170Z,3.24
2023-02-25T20:49:03.691Z,3.51
2023-02-25T20:51:30.252Z,3.10
2023-02-25T20:54:06.802Z,3.12
2023-02-25T20:56:33.521Z,3.17
2023-02-25T20:59:00.055Z,3.34
2023-02-25T21:01:26.982Z,3.23
2023-02-25T21:03:55.511Z,3.29
2023-02-25T21:06:22.893Z,3.37
2023-02-25T21:08:53.034Z,3.02
2023-02-25T21:11:20.364Z,3.12
2023-02-25T21:13:47.802Z,3.25
2023-02-25T21:16:14.407Z,3.33
2023-02-25T21:18:43.363Z,3.27
2023-02-25T21:21:10.867Z,3.31
2023-02-25T21:23:43.324Z,3.24
2023-02-25T21:26:10.234Z,3.23
2023-02-25T21:28:47.892Z,3.44
2023-02-25T21:34:03.366Z,2.94
2023-02-25T21:36:36.554Z,2.92
2023-02-25T21:39:03.763Z,2.91
2023-02-25T21:41:36.193Z,2.91
2023-02-25T21:44:12.158Z,2.94
2023-02-25T21:46:40.116Z,3.00
2023-02-25T21:49:12.073Z,3.08
2023-02-25T21:57:49.711Z,3.58
2023-02-25T22:00:07.386Z,3.42
2023-02-25T22:05:36.001Z,3.32
2023-02-25T22:10:50.428Z,3.22
2023-02-25T22:13:20.499Z,3.34
2023-02-25T22:15:59.759Z,3.47
2023-02-25T22:18:33.362Z,3.21
2023-02-25T22:23:57.242Z,2.99
2023-02-25T22:26:32.406Z,2.88
2023-02-25T22:29:07.028Z,2.94
2023-02-25T22:31:33.656Z,3.22
2023-02-25T22:34:00.121Z,3.22
2023-02-25T22:36:27.404Z,3.07
2023-02-25T22:38:59.563Z,2.73
2023-02-25T22:41:28.371Z,2.90
2023-02-25T22:44:03.764Z,3.03
2023-02-25T22:46:46.338Z,3.17
2023-02-25T22:49:12.982Z,3.25
2023-02-25T22:51:39.399Z,3.24
2023-02-25T22:54:08.785Z,3.20
2023-02-25T22:56:35.413Z,3.20
2023-02-25T22:59:02.199Z,3.24
2023-02-25T23:01:28.957Z,3.12
2023-02-25T23:03:56.001Z,3.25
2023-02-25T23:06:34.219Z,3.08
2023-02-25T23:09:08.733Z,2.89
2023-02-25T23:11:35.620Z,3.04
2023-02-25T23:14:05.531Z,3.23
2023-02-25T23:16:32.859Z,2.97
2023-02-25T23:18:59.511Z,2.75
2023-02-25T23:21:26.377Z,2.86
2023-02-25T23:23:57.440Z,2.88
2023-02-25T23:26:25.029Z,2.96
2023-02-25T23:29:05.612Z,2.90
2023-02-25T23:31:47.064Z,2.97
2023-02-25T23:37:04.629Z,3.05
2023-02-25T23:40:02.244Z,3.11
2023-02-25T23:48:07.684Z,2.67
2023-02-25T23:50:34.734Z,2.77
2023-02-25T23:53:11.938Z,2.80
2023-02-25T23:58:32.976Z,2.59
